createdAt,value
2023-04-27T00:00:14.434Z,7.90
2023-04-27T00:03:05.872Z,5.00
2023-04-27T00:05:54.495Z,9.43
2023-04-27T00:08:41.458Z,6.57
2023-04-27T00:11:28.216Z,6.60
2023-04-27T00:14:15.125Z,7.30
2023-04-27T00:17:02.307Z,7.17
2023-04-27T00:19:49.106Z,10.00
2023-04-27T00:22:37.672Z,6.50
2023-04-27T00:25:24.725Z,5.47
2023-04-27T00:28:11.528Z,8.07
2023-04-27T00:30:58.451Z,6.60
2023-04-27T00:33:45.211Z,7.07
2023-04-27T00:36:32.025Z,7.83
2023-04-27T00:39:20.153Z,6.00
2023-04-27T00:42:11.393Z,6.10
2023-04-27T00:44:58.968Z,6.23
2023-04-27T00:47:46.323Z,9.70
2023-04-27T00:50:33.208Z,11.37
2023-04-27T00:53:20.847Z,9.03
2023-04-27T00:56:09.165Z,10.23
2023-04-27T00:58:56.024Z,8.70
2023-04-27T01:01:43.476Z,5.50
2023-04-27T01:04:32.294Z,6.90
2023-04-27T01:07:19.686Z,9.40
2023-04-27T01:10:07.614Z,6.53
2023-04-27T01:12:55.703Z,6.67
2023-04-27T01:15:42.759Z,8.30
2023-04-27T01:18:30.161Z,7.47
2023-04-27T01:21:17.157Z,5.70
2023-04-27T01:24:07.576Z,7.33
2023-04-27T01:26:54.312Z,8.47
2023-04-27T01:29:41.380Z,10.53
2023-04-27T01:32:28.952Z,6.73
2023-04-27T01:35:15.998Z,7.77
2023-04-27T01:38:03.067Z,8.77
2023-04-27T01:40:51.319Z,7.67
2023-04-27T01:43:38.536Z,7.33
2023-04-27T01:46:25.418Z,6.10
2023-04-27T01:49:12.688Z,7.27
2023-04-27T01:51:59.987Z,7.17
2023-04-27T01:54:47.157Z,6.10
2023-04-27T01:57:35.536Z,5.63
2023-04-27T02:00:22.477Z,9.47
2023-04-27T02:03:09.732Z,8.67
2023-04-27T02:05:56.683Z,6.87
2023-04-27T02:08:43.725Z,7.63
2023-04-27T02:11:31.963Z,9.57
2023-04-27T02:14:20.491Z,10.20
2023-04-27T02:17:07.558Z,5.63
2023-04-27T02:19:54.386Z,7.43
2023-04-27T02:22:43.082Z,7.97
2023-04-27T02:25:29.780Z,8.87
2023-04-27T02:28:17.043Z,10.33
2023-04-27T02:31:06.181Z,6.27
2023-04-27T02:33:53.169Z,7.30
2023-04-27T02:36:40.221Z,7.00
2023-04-27T02:39:27.133Z,8.07
2023-04-27T02:42:13.830Z,5.23
2023-04-27T02:45:00.812Z,7.47
2023-04-27T02:47:49.056Z,8.33
2023-04-27T02:50:41.357Z,7.03
2023-04-27T02:53:28.364Z,7.87
2023-04-27T02:56:14.971Z,9.80
2023-04-27T02:59:01.718Z,7.00
2023-04-27T03:01:48.411Z,7.17
2023-04-27T03:04:38.465Z,6.97
2023-04-27T03:07:25.646Z,6.30
2023-04-27T03:10:12.612Z,6.20
2023-04-27T03:12:59.612Z,8.07
2023-04-27T03:15:46.404Z,6.43
2023-04-27T03:18:33.389Z,7.13
2023-04-27T03:21:21.583Z,9.20
2023-04-27T03:24:09.044Z,5.13
2023-04-27T03:26:56.039Z,6.33
2023-04-27T03:29:42.676Z,6.00
2023-04-27T03:32:29.911Z,5.80
2023-04-27T03:35:17.035Z,8.10
2023-04-27T03:38:05.294Z,7.83
2023-04-27T03:40:52.203Z,5.83
2023-04-27T03:43:39.253Z,6.10
2023-04-27T03:46:26.108Z,7.57
2023-04-27T03:49:13.033Z,7.70
2023-04-27T03:52:00.397Z,6.87
2023-04-27T03:54:48.910Z,6.93
2023-04-27T03:57:35.659Z,9.90
2023-04-27T04:00:22.874Z,9.63
2023-04-27T04:03:09.818Z,8.10
2023-04-27T04:05:56.962Z,7.27
2023-04-27T04:08:43.656Z,7.90
2023-04-27T04:11:31.534Z,6.00
2023-04-27T04:14:18.624Z,7.73
2023-04-27T04:17:05.460Z,6.37
2023-04-27T04:19:52.209Z,7.67
2023-04-27T04:22:39.143Z,7.57
2023-04-27T04:25:26.968Z,5.63
2023-04-27T04:28:15.010Z,6.97
2023-04-27T04:31:02.914Z,8.67
2023-04-27T04:33:49.922Z,6.50
2023-04-27T04:36:38.143Z,7.03
2023-04-27T04:39:25.038Z,7.57
2023-04-27T04:42:11.908Z,9.03
2023-04-27T04:45:00.231Z,6.07
2023-04-27T04:47:47.388Z,7.63
2023-04-27T04:50:34.374Z,7.53
2023-04-27T04:53:21.106Z,6.63
2023-04-27T04:56:12.077Z,8.30
2023-04-27T04:58:58.922Z,8.63
2023-04-27T05:01:46.897Z,6.63
2023-04-27T05:04:33.674Z,7.90
2023-04-27T05:07:24.712Z,7.30
2023-04-27T05:10:12.315Z,6.27
2023-04-27T05:12:58.835Z,6.60
2023-04-27T05:15:45.636Z,5.70
2023-04-27T05:18:36.103Z,6.10
2023-04-27T05:21:23.011Z,8.83
2023-04-27T05:24:09.529Z,8.57
2023-04-27T05:26:56.483Z,9.30
2023-04-27T05:29:44.248Z,6.43
2023-04-27T05:32:31.499Z,8.53
2023-04-27T05:35:21.479Z,7.07
2023-04-27T05:38:08.023Z,7.97
2023-04-27T05:40:56.680Z,7.67
2023-04-27T05:43:43.455Z,6.40
2023-04-27T05:46:30.219Z,6.37
2023-04-27T05:49:17.311Z,5.97
2023-04-27T05:52:05.696Z,7.57
2023-04-27T05:54:52.481Z,9.23
2023-04-27T05:57:39.177Z,6.53
2023-04-27T06:00:26.149Z,8.53
2023-04-27T06:03:13.383Z,7.40
2023-04-27T06:06:01.848Z,4.77
2023-04-27T06:08:50.605Z,5.17
2023-04-27T06:11:37.631Z,7.77
2023-04-27T06:14:24.022Z,9.20
2023-04-27T06:17:10.612Z,12.67
2023-04-27T06:19:57.876Z,9.20
2023-04-27T06:22:46.873Z,8.10
2023-04-27T06:25:35.787Z,9.30
2023-04-27T06:28:22.484Z,6.87
2023-04-27T06:31:09.717Z,7.80
2023-04-27T06:33:56.444Z,6.77
2023-04-27T06:36:43.255Z,5.67
2023-04-27T06:39:29.931Z,6.47
2023-04-27T06:42:18.275Z,11.97
2023-04-27T06:45:05.801Z,6.35
2023-04-27T06:47:52.719Z,6.00
2023-04-27T06:50:39.568Z,6.10
2023-04-27T06:53:27.013Z,6.18
2023-04-27T06:56:14.074Z,7.50
2023-04-27T06:59:02.120Z,4.95
2023-04-27T07:01:48.736Z,6.85
2023-04-27T07:04:36.695Z,4.18
2023-04-27T07:07:23.784Z,3.75
2023-04-27T07:10:10.830Z,8.02
2023-04-27T07:12:57.702Z,4.05
2023-04-27T07:15:46.026Z,4.85
2023-04-27T07:18:33.256Z,4.57
2023-04-27T07:21:19.873Z,3.22
2023-04-27T07:24:06.922Z,5.53
2023-04-27T07:26:54.417Z,3.65
2023-04-27T07:29:41.239Z,6.43
2023-04-27T07:32:29.493Z,4.55
2023-04-27T07:35:16.379Z,4.22
2023-04-27T07:38:03.812Z,4.70
2023-04-27T07:40:51.197Z,6.70
2023-04-27T07:43:38.074Z,3.67
2023-04-27T07:46:26.342Z,2.50
2023-04-27T07:49:15.669Z,2.58
2023-04-27T07:52:03.120Z,2.45
2023-04-27T07:54:49.830Z,2.53
2023-04-27T07:57:36.452Z,2.13
2023-04-27T08:00:23.689Z,5.10
2023-04-27T08:03:10.470Z,2.50
2023-04-27T08:05:59.288Z,2.83
2023-04-27T08:08:46.539Z,3.60
2023-04-27T08:11:33.568Z,5.65
2023-04-27T08:14:20.233Z,1.95
2023-04-27T08:17:07.668Z,2.10
2023-04-27T08:19:54.584Z,3.20
2023-04-27T08:22:43.561Z,3.05
2023-04-27T08:25:30.483Z,4.78
2023-04-27T08:28:17.684Z,3.10
2023-04-27T08:31:05.159Z,3.97
2023-04-27T08:33:52.433Z,2.78
2023-04-27T08:36:39.378Z,3.55
2023-04-27T08:39:27.960Z,1.13
2023-04-27T08:42:15.353Z,1.83
2023-04-27T08:45:02.772Z,2.65
2023-04-27T08:47:49.899Z,2.65
2023-04-27T08:50:39.965Z,1.98
2023-04-27T08:53:26.825Z,2.97
2023-04-27T08:56:14.869Z,1.42
2023-04-27T08:59:04.198Z,2.50
2023-04-27T09:01:51.379Z,3.65
2023-04-27T09:04:39.201Z,2.85
2023-04-27T09:07:28.425Z,4.72
2023-04-27T09:10:15.934Z,2.00
2023-04-27T09:13:03.840Z,3.22
2023-04-27T09:15:53.392Z,3.92
2023-04-27T09:18:43.653Z,3.60
2023-04-27T09:21:32.708Z,3.10
2023-04-27T09:24:19.219Z,2.85
2023-04-27T09:27:09.070Z,1.77
2023-04-27T09:29:57.118Z,2.25
2023-04-27T09:32:52.755Z,2.22
2023-04-27T09:35:40.346Z,5.18
2023-04-27T09:38:27.358Z,2.83
2023-04-27T09:41:14.733Z,3.42
2023-04-27T09:44:02.239Z,5.50
2023-04-27T09:46:52.679Z,2.58
2023-04-27T09:49:39.370Z,3.95
2023-04-27T09:52:26.303Z,3.58
2023-04-27T09:55:17.410Z,3.75
2023-04-27T09:58:21.316Z,3.50
2023-04-27T10:01:19.703Z,2.38
2023-04-27T10:04:20.569Z,3.88
2023-04-27T10:07:09.974Z,3.15
2023-04-27T10:10:02.906Z,3.38
2023-04-27T10:12:58.736Z,2.78
2023-04-27T10:15:45.571Z,4.57
2023-04-27T10:18:32.972Z,4.18
2023-04-27T10:21:21.753Z,3.80
2023-04-27T10:24:09.815Z,2.58
2023-04-27T10:27:03.273Z,4.65
2023-04-27T10:29:51.687Z,3.65
2023-04-27T10:32:38.509Z,2.53
2023-04-27T10:35:35.320Z,2.03
2023-04-27T10:38:29.768Z,4.18
2023-04-27T10:41:16.712Z,5.05
2023-04-27T10:44:15.535Z,3.35
2023-04-27T10:47:04.160Z,2.65
2023-04-27T10:49:54.411Z,5.25
2023-04-27T10:52:46.709Z,3.63
2023-04-27T10:55:36.565Z,2.97
2023-04-27T10:58:26.649Z,3.40
2023-04-27T11:01:25.824Z,3.15
2023-04-27T11:04:13.246Z,4.10
2023-04-27T11:07:01.622Z,3.17
2023-04-27T11:09:50.553Z,2.70
2023-04-27T11:12:39.232Z,2.45
2023-04-27T11:15:26.344Z,4.03
2023-04-27T11:18:13.095Z,2.63
2023-04-27T11:21:09.443Z,8.18
2023-04-27T11:23:56.946Z,3.22
2023-04-27T11:26:44.224Z,4.45
2023-04-27T11:29:40.434Z,4.35
2023-04-27T11:32:27.142Z,2.85
2023-04-27T11:35:14.332Z,3.75
2023-04-27T11:38:00.938Z,3.35
2023-04-27T11:40:48.323Z,4.97
2023-04-27T11:43:35.854Z,2.58
2023-04-27T11:46:23.959Z,3.33
2023-04-27T11:49:10.934Z,3.80
2023-04-27T11:51:58.763Z,4.05
2023-04-27T11:54:53.990Z,2.60
2023-04-27T11:57:41.174Z,2.75
2023-04-27T12:00:28.818Z,6.30
2023-04-27T12:03:17.471Z,2.22
2023-04-27T12:06:21.235Z,4.60
2023-04-27T12:09:11.950Z,5.05
2023-04-27T12:11:59.169Z,3.42
2023-04-27T12:14:46.486Z,5.38
2023-04-27T12:17:33.508Z,4.22
2023-04-27T12:20:21.892Z,4.00
2023-04-27T12:23:08.538Z,3.55
2023-04-27T12:25:55.811Z,2.95
2023-04-27T12:28:43.223Z,4.63
2023-04-27T12:31:31.347Z,4.20
2023-04-27T12:34:18.615Z,4.50
2023-04-27T12:37:07.166Z,3.10
2023-04-27T12:39:53.740Z,2.80
2023-04-27T12:42:41.151Z,2.35
2023-04-27T12:45:28.047Z,2.58
2023-04-27T12:48:17.586Z,2.75
2023-04-27T12:51:04.936Z,2.33
2023-04-27T12:53:53.166Z,2.72
2023-04-27T12:56:40.256Z,2.20
2023-04-27T12:59:27.602Z,7.82
2023-04-27T13:02:14.848Z,4.40
2023-04-27T13:05:01.828Z,2.58
2023-04-27T13:07:48.709Z,2.53
2023-04-27T13:10:37.273Z,2.42
2023-04-27T13:13:24.057Z,2.45
2023-04-27T13:16:11.657Z,3.58
2023-04-27T13:18:58.773Z,3.33
2023-04-27T13:21:45.906Z,3.70
2023-04-27T13:24:32.932Z,4.85
2023-04-27T13:27:22.486Z,4.47
2023-04-27T13:30:10.485Z,4.85
2023-04-27T13:33:07.212Z,5.63
2023-04-27T13:36:02.412Z,4.63
2023-04-27T13:38:49.385Z,4.78
2023-04-27T13:41:36.234Z,4.25
2023-04-27T13:44:24.512Z,2.17
2023-04-27T13:47:11.319Z,2.88
2023-04-27T13:49:58.356Z,2.38
2023-04-27T13:52:45.190Z,4.88
2023-04-27T13:55:31.898Z,5.45
2023-04-27T13:58:19.105Z,3.47
2023-04-27T14:01:08.488Z,4.15
2023-04-27T14:03:56.201Z,3.85
2023-04-27T14:06:43.139Z,2.75
2023-04-27T14:09:30.032Z,3.42
2023-04-27T14:12:17.353Z,6.68
2023-04-27T14:15:04.431Z,2.88
2023-04-27T14:17:52.456Z,3.10
2023-04-27T14:20:40.410Z,3.15
2023-04-27T14:23:27.506Z,2.58
2023-04-27T14:26:14.585Z,3.88
2023-04-27T14:29:01.940Z,5.13
2023-04-27T14:31:48.758Z,3.88
2023-04-27T14:34:36.954Z,3.88
2023-04-27T14:37:23.782Z,3.67
2023-04-27T14:40:11.576Z,4.03
2023-04-27T14:42:59.560Z,2.83
2023-04-27T14:45:53.986Z,3.90
2023-04-27T14:48:42.528Z,4.00
2023-04-27T14:51:32.549Z,3.67
2023-04-27T14:54:21.219Z,2.78
2023-04-27T14:57:08.651Z,4.18
2023-04-27T14:59:55.558Z,3.50
2023-04-27T15:02:42.595Z,3.72
2023-04-27T15:05:29.270Z,2.88
2023-04-27T15:08:18.139Z,6.10
2023-04-27T15:11:04.972Z,3.50
2023-04-27T15:13:51.612Z,1.95
2023-04-27T15:16:38.970Z,3.00
2023-04-27T15:19:26.224Z,3.03
2023-04-27T15:22:15.532Z,2.38
2023-04-27T15:25:03.748Z,5.35
2023-04-27T15:27:51.304Z,2.45
2023-04-27T15:30:38.262Z,1.15
2023-04-27T15:33:25.083Z,1.27
2023-04-27T15:36:12.961Z,3.95
2023-04-27T15:39:00.346Z,1.90
2023-04-27T15:41:48.707Z,2.50
2023-04-27T15:44:35.625Z,2.92
2023-04-27T15:47:22.712Z,2.90
2023-04-27T15:50:09.801Z,2.08
2023-04-27T15:52:56.776Z,2.50
2023-04-27T15:55:44.434Z,3.63
2023-04-27T15:58:32.744Z,4.07
2023-04-27T16:01:19.722Z,2.17
2023-04-27T16:04:06.919Z,2.28
2023-04-27T16:06:54.051Z,2.88
2023-04-27T16:09:42.266Z,2.20
2023-04-27T16:12:30.063Z,2.35
2023-04-27T16:15:18.559Z,1.27
2023-04-27T16:18:05.653Z,1.42
2023-04-27T16:20:52.512Z,3.25
2023-04-27T16:23:39.565Z,0.98
2023-04-27T16:26:27.841Z,3.50
2023-04-27T16:29:15.372Z,1.65
2023-04-27T16:32:03.727Z,1.15
2023-04-27T16:34:50.894Z,9.43
2023-04-27T16:37:37.830Z,2.47
2023-04-27T16:40:24.762Z,1.80
2023-04-27T16:43:11.600Z,2.50
2023-04-27T16:45:58.441Z,1.67
2023-04-27T16:48:46.630Z,2.15
2023-04-27T16:51:33.935Z,3.40
2023-04-27T16:54:21.120Z,2.13
2023-04-27T16:57:08.012Z,2.72
2023-04-27T16:59:54.770Z,1.23
2023-04-27T17:02:43.813Z,1.50
2023-04-27T17:05:32.620Z,2.17
2023-04-27T17:08:19.484Z,2.67
2023-04-27T17:11:09.440Z,1.48
2023-04-27T17:13:56.434Z,1.58
2023-04-27T17:16:43.226Z,1.75
2023-04-27T17:19:30.319Z,2.00
2023-04-27T17:22:18.577Z,2.53
2023-04-27T17:25:06.214Z,2.00
2023-04-27T17:27:53.006Z,2.63
2023-04-27T17:30:41.886Z,2.13
2023-04-27T17:33:28.481Z,2.67
2023-04-27T17:36:15.377Z,1.40
2023-04-27T17:39:04.833Z,1.75
2023-04-27T17:41:51.232Z,3.90
2023-04-27T17:44:39.460Z,4.63
2023-04-27T17:47:26.856Z,1.05
2023-04-27T17:50:14.757Z,1.52
2023-04-27T17:53:01.687Z,4.18
2023-04-27T17:55:51.838Z,1.90
2023-04-27T17:58:38.964Z,2.10
2023-04-27T18:01:26.166Z,3.30
2023-04-27T18:04:13.213Z,2.63
2023-04-27T18:07:00.644Z,3.43
2023-04-27T18:09:47.897Z,1.90
2023-04-27T18:12:36.618Z,4.93
2023-04-27T18:15:23.828Z,2.73
2023-04-27T18:18:10.973Z,2.97
2023-04-27T18:20:57.771Z,5.87
2023-04-27T18:23:44.808Z,3.30
2023-04-27T18:26:35.034Z,1.50
2023-04-27T18:29:23.345Z,3.30
2023-04-27T18:32:10.523Z,4.77
2023-04-27T18:34:57.595Z,3.57
2023-04-27T18:37:48.240Z,4.53
2023-04-27T18:40:36.233Z,3.60
2023-04-27T18:43:23.375Z,4.70
2023-04-27T18:46:11.493Z,2.80
2023-04-27T18:48:58.641Z,3.53
2023-04-27T18:51:46.475Z,4.67
2023-04-27T18:54:33.499Z,6.27
2023-04-27T18:57:20.190Z,5.73
2023-04-27T19:00:09.329Z,3.17
2023-04-27T19:02:57.957Z,3.10
2023-04-27T19:05:45.016Z,3.87
2023-04-27T19:08:32.036Z,1.87
2023-04-27T19:11:22.480Z,4.97
2023-04-27T19:14:09.519Z,2.83
2023-04-27T19:16:56.352Z,5.37
2023-04-27T19:19:45.812Z,2.67
2023-04-27T19:22:34.389Z,3.30
2023-04-27T19:25:23.090Z,7.37
2023-04-27T19:28:10.452Z,4.90
2023-04-27T19:30:57.719Z,2.00
2023-04-27T19:33:47.410Z,7.37
2023-04-27T19:36:43.283Z,2.27
2023-04-27T19:39:32.369Z,3.60
2023-04-27T19:42:21.262Z,3.23
2023-04-27T19:45:08.977Z,7.23
2023-04-27T19:47:56.479Z,4.03
2023-04-27T19:50:44.101Z,3.10
2023-04-27T19:53:32.409Z,4.27
2023-04-27T19:56:19.279Z,4.60
2023-04-27T19:59:06.183Z,4.73
2023-04-27T20:01:53.275Z,3.37
2023-04-27T20:04:41.539Z,4.47
2023-04-27T20:07:28.632Z,4.10
2023-04-27T20:10:16.786Z,2.47
2023-04-27T20:13:03.796Z,4.73
2023-04-27T20:15:51.291Z,3.70
2023-04-27T20:18:38.173Z,5.90
2023-04-27T20:21:26.356Z,3.13
2023-04-27T20:24:13.672Z,4.23
2023-04-27T20:27:02.833Z,5.73
2023-04-27T20:29:49.704Z,5.13
2023-04-27T20:32:36.956Z,3.73
2023-04-27T20:35:24.267Z,4.27
2023-04-27T20:38:12.423Z,7.53
2023-04-27T20:41:01.099Z,4.93
2023-04-27T20:43:52.460Z,4.33
2023-04-27T20:46:39.499Z,2.77
2023-04-27T20:49:34.412Z,4.70
2023-04-27T20:52:22.181Z,4.60
2023-04-27T20:55:09.638Z,4.27
2023-04-27T20:57:56.739Z,3.90
2023-04-27T21:00:45.377Z,4.90
2023-04-27T21:03:32.298Z,4.30
2023-04-27T21:06:19.565Z,6.67
2023-04-27T21:09:06.583Z,6.20
2023-04-27T21:11:53.772Z,5.00
2023-04-27T21:14:40.670Z,4.07
2023-04-27T21:17:29.151Z,4.27
2023-04-27T21:20:16.327Z,3.70
2023-04-27T21:23:03.585Z,4.63
2023-04-27T21:25:50.373Z,6.73
2023-04-27T21:28:37.580Z,4.03
2023-04-27T21:31:24.803Z,5.30
2023-04-27T21:34:13.159Z,4.17
2023-04-27T21:37:00.051Z,5.87
2023-04-27T21:39:47.011Z,6.17
2023-04-27T21:42:33.962Z,4.53
2023-04-27T21:45:21.054Z,4.63
2023-04-27T21:48:08.266Z,4.03
2023-04-27T21:50:56.761Z,5.10
2023-04-27T21:53:43.818Z,3.53
2023-04-27T21:56:30.835Z,4.77
2023-04-27T21:59:18.029Z,7.70
2023-04-27T22:02:07.608Z,6.23
2023-04-27T22:04:54.718Z,3.70
2023-04-27T22:07:43.135Z,4.53
2023-04-27T22:10:30.096Z,4.43
2023-04-27T22:13:19.349Z,5.60
2023-04-27T22:16:07.077Z,6.03
2023-04-27T22:18:54.099Z,4.87
2023-04-27T22:21:40.985Z,4.63
2023-04-27T22:24:29.029Z,4.57
2023-04-27T22:27:15.955Z,6.17
2023-04-27T22:30:02.788Z,3.67
2023-04-27T22:32:50.287Z,4.80
2023-04-27T22:35:38.202Z,4.97
2023-04-27T22:38:24.925Z,5.07
2023-04-27T22:41:13.018Z,6.23
2023-04-27T22:44:00.121Z,4.13
2023-04-27T22:46:47.032Z,4.80
2023-04-27T22:49:36.815Z,4.47
2023-04-27T22:52:24.761Z,3.43
2023-04-27T22:55:12.936Z,6.13
2023-04-27T22:58:01.280Z,3.87
2023-04-27T23:00:47.919Z,4.13
2023-04-27T23:03:35.355Z,4.10
2023-04-27T23:06:22.146Z,3.97
2023-04-27T23:09:08.970Z,9.27
2023-04-27T23:11:57.902Z,4.10
2023-04-27T23:14:46.257Z,4.03
2023-04-27T23:17:33.020Z,4.93
2023-04-27T23:20:27.995Z,6.83
2023-04-27T23:23:15.697Z,4.83
2023-04-27T23:26:02.877Z,3.97
2023-04-27T23:28:49.734Z,5.17
2023-04-27T23:31:37.947Z,3.10
2023-04-27T23:34:24.877Z,3.23
2023-04-27T23:37:12.060Z,3.40
2023-04-27T23:39:58.764Z,2.17
2023-04-27T23:42:45.916Z,3.67
2023-04-27T23:45:32.895Z,3.27
2023-04-27T23:48:20.914Z,3.57
2023-04-27T23:51:07.947Z,3.07
2023-04-27T23:53:54.818Z,6.20
2023-04-27T23:56:41.540Z,2.87
2023-04-27T23:59:28.413Z,6.47
